sensor_id;sensor_type;location;lat;lon;timestamp;P1;durP1;ratioP1;P2;durP2;ratioP2
21018;SDS011;10667;51.056;3.732;2023-07-29T00:01:21;2.47;;;1.85;;
21018;SDS011;10667;51.056;3.732;2023-07-29T00:03:47;2.70;;;2.13;;
21018;SDS011;10667;51.056;3.732;2023-07-29T00:06:13;5.88;;;2.00;;
21018;SDS011;10667;51.056;3.732;2023-07-29T00:08:38;2.08;;;1.88;;
21018;SDS011;10667;51.056;3.732;2023-07-29T00:11:04;4.50;;;2.30;;
21018;SDS011;10667;51.056;3.732;2023-07-29T00:13:30;4.43;;;2.13;;
21018;SDS011;10667;51.056;3.732;2023-07-29T00:15:55;4.97;;;2.38;;
21018;SDS011;10667;51.056;3.732;2023-07-29T00:18:21;4.22;;;1.95;;
21018;SDS011;10667;51.056;3.732;2023-07-29T00:20:48;5.65;;;2.47;;
21018;SDS011;10667;51.056;3.732;2023-07-29T00:23:15;4.55;;;2.25;;
21018;SDS011;10667;51.056;3.732;2023-07-29T00:25:42;3.40;;;2.30;;
21018;SDS011;10667;51.056;3.732;2023-07-29T00:28:07;3.00;;;2.40;;
21018;SDS011;10667;51.056;3.732;2023-07-29T00:30:33;2.38;;;1.92;;
21018;SDS011;10667;51.056;3.732;2023-07-29T00:32:59;3.05;;;2.28;;
21018;SDS011;10667;51.056;3.732;2023-07-29T00:35:24;3.25;;;2.28;;
21018;SDS011;10667;51.056;3.732;2023-07-29T00:37:50;4.03;;;2.45;;
21018;SDS011;10667;51.056;3.732;2023-07-29T00:40:19;5.57;;;2.65;;
21018;SDS011;10667;51.056;3.732;2023-07-29T00:42:46;5.85;;;2.83;;
21018;SDS011;10667;51.056;3.732;2023-07-29T00:45:12;6.38;;;3.95;;
21018;SDS011;10667;51.056;3.732;2023-07-29T00:47:38;6.07;;;3.90;;
21018;SDS011;10667;51.056;3.732;2023-07-29T00:50:04;14.93;;;7.93;;
21018;SDS011;10667;51.056;3.732;2023-07-29T00:52:31;11.98;;;6.40;;
21018;SDS011;10667;51.056;3.732;2023-07-29T00:54:57;6.38;;;4.75;;
21018;SDS011;10667;51.056;3.732;2023-07-29T00:57:23;8.38;;;4.28;;
21018;SDS011;10667;51.056;3.732;2023-07-29T00:59:50;5.32;;;3.80;;
21018;SDS011;10667;51.056;3.732;2023-07-29T01:02:16;6.95;;;5.78;;
21018;SDS011;10667;51.056;3.732;2023-07-29T01:04:42;4.85;;;3.97;;
21018;SDS011;10667;51.056;3.732;2023-07-29T01:09:40;8.30;;;5.78;;
21018;SDS011;10667;51.056;3.732;2023-07-29T01:15:28;4.03;;;2.92;;
21018;SDS011;10667;51.056;3.732;2023-07-29T01:18:21;5.28;;;3.20;;
21018;SDS011;10667;51.056;3.732;2023-07-29T01:20:49;3.95;;;3.30;;
21018;SDS011;10667;51.056;3.732;2023-07-29T01:23:25;7.13;;;4.20;;
21018;SDS011;10667;51.056;3.732;2023-07-29T01:25:54;5.25;;;3.30;;
21018;SDS011;10667;51.056;3.732;2023-07-29T01:28:19;7.18;;;3.03;;
21018;SDS011;10667;51.056;3.732;2023-07-29T01:30:45;6.50;;;3.20;;
21018;SDS011;10667;51.056;3.732;2023-07-29T01:33:17;4.07;;;3.15;;
21018;SDS011;10667;51.056;3.732;2023-07-29T01:36:03;4.22;;;2.53;;
21018;SDS011;10667;51.056;3.732;2023-07-29T01:38:36;4.68;;;3.10;;
21018;SDS011;10667;51.056;3.732;2023-07-29T01:41:06;5.50;;;3.50;;
21018;SDS011;10667;51.056;3.732;2023-07-29T01:43:33;3.35;;;2.72;;
21018;SDS011;10667;51.056;3.732;2023-07-29T01:46:04;6.18;;;3.20;;
21018;SDS011;10667;51.056;3.732;2023-07-29T01:48:29;5.13;;;3.28;;
21018;SDS011;10667;51.056;3.732;2023-07-29T01:50:56;5.05;;;2.88;;
21018;SDS011;10667;51.056;3.732;2023-07-29T01:53:22;6.35;;;2.88;;
21018;SDS011;10667;51.056;3.732;2023-07-29T01:55:48;3.47;;;2.72;;
21018;SDS011;10667;51.056;3.732;2023-07-29T01:58:14;5.78;;;2.80;;
21018;SDS011;10667;51.056;3.732;2023-07-29T02:00:40;5.43;;;2.85;;
21018;SDS011;10667;51.056;3.732;2023-07-29T02:03:05;4.88;;;3.22;;
21018;SDS011;10667;51.056;3.732;2023-07-29T02:05:31;4.30;;;3.25;;
21018;SDS011;10667;51.056;3.732;2023-07-29T02:07:57;5.35;;;2.80;;
21018;SDS011;10667;51.056;3.732;2023-07-29T02:10:22;4.05;;;2.72;;
21018;SDS011;10667;51.056;3.732;2023-07-29T02:12:48;5.25;;;2.88;;
21018;SDS011;10667;51.056;3.732;2023-07-29T02:15:13;4.07;;;2.90;;
21018;SDS011;10667;51.056;3.732;2023-07-29T02:17:41;5.38;;;3.10;;
21018;SDS011;10667;51.056;3.732;2023-07-29T02:20:07;5.40;;;3.58;;
21018;SDS011;10667;51.056;3.732;2023-07-29T02:22:33;6.57;;;3.40;;
21018;SDS011;10667;51.056;3.732;2023-07-29T02:24:59;4.57;;;3.33;;
21018;SDS011;10667;51.056;3.732;2023-07-29T02:27:25;5.72;;;3.17;;
21018;SDS011;10667;51.056;3.732;2023-07-29T02:29:52;5.57;;;3.00;;
21018;SDS011;10667;51.056;3.732;2023-07-29T02:32:18;6.85;;;3.10;;
21018;SDS011;10667;51.056;3.732;2023-07-29T02:34:44;3.95;;;2.45;;
21018;SDS011;10667;51.056;3.732;2023-07-29T02:37:10;4.20;;;2.83;;
21018;SDS011;10667;51.056;3.732;2023-07-29T02:39:36;5.07;;;2.92;;
21018;SDS011;10667;51.056;3.732;2023-07-29T02:42:02;4.05;;;2.78;;
21018;SDS011;10667;51.056;3.732;2023-07-29T02:44:28;3.88;;;2.65;;
21018;SDS011;10667;51.056;3.732;2023-07-29T02:46:53;3.85;;;3.05;;
21018;SDS011;10667;51.056;3.732;2023-07-29T02:49:21;4.03;;;2.55;;
21018;SDS011;10667;51.056;3.732;2023-07-29T02:51:47;2.90;;;2.53;;
21018;SDS011;10667;51.056;3.732;2023-07-29T02:54:13;4.97;;;2.88;;
21018;SDS011;10667;51.056;3.732;2023-07-29T02:56:38;4.50;;;3.10;;
21018;SDS011;10667;51.056;3.732;2023-07-29T02:59:04;4.65;;;2.67;;
21018;SDS011;10667;51.056;3.732;2023-07-29T03:01:30;3.42;;;2.78;;
21018;SDS011;10667;51.056;3.732;2023-07-29T03:03:56;5.25;;;2.97;;
21018;SDS011;10667;51.056;3.732;2023-07-29T03:06:22;6.68;;;2.83;;
21018;SDS011;10667;51.056;3.732;2023-07-29T03:08:47;3.00;;;2.53;;
21018;SDS011;10667;51.056;3.732;2023-07-29T03:11:14;3.42;;;2.63;;
21018;SDS011;10667;51.056;3.732;2023-07-29T03:13:40;4.78;;;2.58;;
21018;SDS011;10667;51.056;3.732;2023-07-29T03:16:07;3.30;;;2.47;;
21018;SDS011;10667;51.056;3.732;2023-07-29T03:18:35;3.28;;;2.70;;
21018;SDS011;10667;51.056;3.732;2023-07-29T03:21:01;3.55;;;2.80;;
21018;SDS011;10667;51.056;3.732;2023-07-29T03:23:27;4.70;;;2.90;;
21018;SDS011;10667;51.056;3.732;2023-07-29T03:25:54;4.25;;;2.70;;
21018;SDS011;10667;51.056;3.732;2023-07-29T03:28:23;5.40;;;2.80;;
21018;SDS011;10667;51.056;3.732;2023-07-29T03:30:50;4.70;;;3.17;;
21018;SDS011;10667;51.056;3.732;2023-07-29T03:33:16;3.80;;;2.90;;
21018;SDS011;10667;51.056;3.732;2023-07-29T03:35:41;2.97;;;2.60;;
21018;SDS011;10667;51.056;3.732;2023-07-29T03:38:10;4.47;;;2.88;;
21018;SDS011;10667;51.056;3.732;2023-07-29T03:40:36;3.65;;;2.67;;
21018;SDS011;10667;51.056;3.732;2023-07-29T03:43:06;3.85;;;2.60;;
21018;SDS011;10667;51.056;3.732;2023-07-29T03:45:32;5.22;;;2.55;;
21018;SDS011;10667;51.056;3.732;2023-07-29T03:47:58;5.40;;;2.95;;
21018;SDS011;10667;51.056;3.732;2023-07-29T03:50:24;4.18;;;2.97;;
21018;SDS011;10667;51.056;3.732;2023-07-29T03:52:50;4.95;;;2.50;;
21018;SDS011;10667;51.056;3.732;2023-07-29T03:55:16;4.28;;;3.03;;
21018;SDS011;10667;51.056;3.732;2023-07-29T03:57:41;4.30;;;2.63;;
21018;SDS011;10667;51.056;3.732;2023-07-29T04:00:07;7.13;;;3.10;;
21018;SDS011;10667;51.056;3.732;2023-07-29T04:02:34;3.72;;;2.90;;
21018;SDS011;10667;51.056;3.732;2023-07-29T04:05:02;3.67;;;2.92;;
21018;SDS011;10667;51.056;3.732;2023-07-29T04:07:29;3.95;;;3.00;;
21018;SDS011;10667;51.056;3.732;2023-07-29T04:09:55;6.88;;;3.20;;
21018;SDS011;10667;51.056;3.732;2023-07-29T04:12:21;5.32;;;2.97;;
21018;SDS011;10667;51.056;3.732;2023-07-29T04:14:48;5.82;;;3.10;;
21018;SDS011;10667;51.056;3.732;2023-07-29T04:17:13;3.85;;;2.70;;
21018;SDS011;10667;51.056;3.732;2023-07-29T04:19:39;4.47;;;2.90;;
21018;SDS011;10667;51.056;3.732;2023-07-29T04:22:05;5.45;;;3.03;;
21018;SDS011;10667;51.056;3.732;2023-07-29T04:24:31;3.78;;;2.72;;
21018;SDS011;10667;51.056;3.732;2023-07-29T04:26:56;5.32;;;2.72;;
21018;SDS011;10667;51.056;3.732;2023-07-29T04:29:22;3.53;;;2.90;;
21018;SDS011;10667;51.056;3.732;2023-07-29T04:31:48;2.92;;;2.38;;
21018;SDS011;10667;51.056;3.732;2023-07-29T04:34:17;4.53;;;2.97;;
21018;SDS011;10667;51.056;3.732;2023-07-29T04:36:44;5.03;;;3.03;;
21018;SDS011;10667;51.056;3.732;2023-07-29T04:39:12;6.45;;;3.22;;
21018;SDS011;10667;51.056;3.732;2023-07-29T04:41:38;3.22;;;2.58;;
21018;SDS011;10667;51.056;3.732;2023-07-29T04:44:04;5.00;;;2.95;;
21018;SDS011;10667;51.056;3.732;2023-07-29T04:46:30;4.50;;;2.83;;
21018;SDS011;10667;51.056;3.732;2023-07-29T04:48:55;4.47;;;2.80;;
21018;SDS011;10667;51.056;3.732;2023-07-29T04:51:21;3.33;;;2.70;;
21018;SDS011;10667;51.056;3.732;2023-07-29T04:53:47;5.07;;;3.15;;
21018;SDS011;10667;51.056;3.732;2023-07-29T04:56:13;4.35;;;2.88;;
21018;SDS011;10667;51.056;3.732;2023-07-29T04:58:39;5.03;;;3.40;;
21018;SDS011;10667;51.056;3.732;2023-07-29T05:01:04;4.05;;;2.75;;
21018;SDS011;10667;51.056;3.732;2023-07-29T05:03:31;4.75;;;3.00;;
21018;SDS011;10667;51.056;3.732;2023-07-29T05:05:57;3.05;;;2.42;;
21018;SDS011;10667;51.056;3.732;2023-07-29T05:08:24;5.60;;;2.65;;
21018;SDS011;10667;51.056;3.732;2023-07-29T05:10:51;4.80;;;2.60;;
21018;SDS011;10667;51.056;3.732;2023-07-29T05:13:18;4.05;;;2.67;;
21018;SDS011;10667;51.056;3.732;2023-07-29T05:15:44;5.00;;;2.65;;
21018;SDS011;10667;51.056;3.732;2023-07-29T05:18:10;4.47;;;2.65;;
21018;SDS011;10667;51.056;3.732;2023-07-29T05:20:36;4.13;;;2.55;;
21018;SDS011;10667;51.056;3.732;2023-07-29T05:23:02;4.03;;;2.20;;
21018;SDS011;10667;51.056;3.732;2023-07-29T05:25:28;3.55;;;2.53;;
21018;SDS011;10667;51.056;3.732;2023-07-29T05:27:54;3.30;;;2.60;;
21018;SDS011;10667;51.056;3.732;2023-07-29T05:30:20;2.83;;;2.42;;
21018;SDS011;10667;51.056;3.732;2023-07-29T05:32:45;5.72;;;2.60;;
21018;SDS011;10667;51.056;3.732;2023-07-29T05:35:11;3.78;;;2.42;;
21018;SDS011;10667;51.056;3.732;2023-07-29T05:37:38;4.30;;;2.38;;
21018;SDS011;10667;51.056;3.732;2023-07-29T05:40:07;3.35;;;2.25;;
21018;SDS011;10667;51.056;3.732;2023-07-29T05:42:36;5.63;;;2.28;;
21018;SDS011;10667;51.056;3.732;2023-07-29T05:45:01;4.15;;;2.85;;
21018;SDS011;10667;51.056;3.732;2023-07-29T05:47:27;5.38;;;2.35;;
21018;SDS011;10667;51.056;3.732;2023-07-29T05:49:53;3.17;;;2.08;;
21018;SDS011;10667;51.056;3.732;2023-07-29T05:52:19;4.15;;;2.60;;
21018;SDS011;10667;51.056;3.732;2023-07-29T05:54:45;4.97;;;2.15;;
21018;SDS011;10667;51.056;3.732;2023-07-29T05:57:11;3.40;;;2.28;;
21018;SDS011;10667;51.056;3.732;2023-07-29T05:59:37;6.07;;;2.28;;
21018;SDS011;10667;51.056;3.732;2023-07-29T06:02:03;2.60;;;2.03;;
21018;SDS011;10667;51.056;3.732;2023-07-29T06:04:29;2.40;;;2.10;;
21018;SDS011;10667;51.056;3.732;2023-07-29T06:06:54;3.08;;;2.42;;
21018;SDS011;10667;51.056;3.732;2023-07-29T06:09:21;3.47;;;2.17;;
21018;SDS011;10667;51.056;3.732;2023-07-29T06:11:47;3.00;;;2.05;;
21018;SDS011;10667;51.056;3.732;2023-07-29T06:14:12;3.47;;;2.15;;
21018;SDS011;10667;51.056;3.732;2023-07-29T06:16:38;2.67;;;1.80;;
21018;SDS011;10667;51.056;3.732;2023-07-29T06:19:04;2.80;;;2.00;;
21018;SDS011;10667;51.056;3.732;2023-07-29T06:21:29;5.15;;;2.20;;
21018;SDS011;10667;51.056;3.732;2023-07-29T06:23:55;3.85;;;2.05;;
21018;SDS011;10667;51.056;3.732;2023-07-29T06:26:21;4.20;;;1.98;;
21018;SDS011;10667;51.056;3.732;2023-07-29T06:28:46;2.90;;;2.05;;
21018;SDS011;10667;51.056;3.732;2023-07-29T06:31:12;3.17;;;2.05;;
21018;SDS011;10667;51.056;3.732;2023-07-29T06:33:38;2.47;;;2.05;;
21018;SDS011;10667;51.056;3.732;2023-07-29T06:36:04;3.05;;;1.95;;
21018;SDS011;10667;51.056;3.732;2023-07-29T06:38:29;3.75;;;2.45;;
21018;SDS011;10667;51.056;3.732;2023-07-29T06:40:55;3.13;;;2.03;;
21018;SDS011;10667;51.056;3.732;2023-07-29T06:43:21;3.58;;;1.85;;
21018;SDS011;10667;51.056;3.732;2023-07-29T06:45:46;3.42;;;1.90;;
21018;SDS011;10667;51.056;3.732;2023-07-29T06:48:12;3.95;;;2.08;;
21018;SDS011;10667;51.056;3.732;2023-07-29T06:50:38;3.42;;;2.05;;
21018;SDS011;10667;51.056;3.732;2023-07-29T06:53:04;5.57;;;2.15;;
21018;SDS011;10667;51.056;3.732;2023-07-29T06:55:29;2.55;;;1.70;;
21018;SDS011;10667;51.056;3.732;2023-07-29T06:57:55;5.15;;;2.00;;
21018;SDS011;10667;51.056;3.732;2023-07-29T07:00:21;3.03;;;2.05;;
21018;SDS011;10667;51.056;3.732;2023-07-29T07:02:46;2.13;;;1.77;;
21018;SDS011;10667;51.056;3.732;2023-07-29T07:05:12;3.55;;;1.70;;
21018;SDS011;10667;51.056;3.732;2023-07-29T07:07:37;3.42;;;1.83;;
21018;SDS011;10667;51.056;3.732;2023-07-29T07:10:03;3.20;;;2.00;;
21018;SDS011;10667;51.056;3.732;2023-07-29T07:12:29;2.47;;;1.80;;
21018;SDS011;10667;51.056;3.732;2023-07-29T07:14:55;2.50;;;2.10;;
21018;SDS011;10667;51.056;3.732;2023-07-29T07:17:20;2.65;;;1.98;;
21018;SDS011;10667;51.056;3.732;2023-07-29T07:19:46;4.68;;;2.20;;
21018;SDS011;10667;51.056;3.732;2023-07-29T07:22:12;3.92;;;2.13;;
21018;SDS011;10667;51.056;3.732;2023-07-29T07:24:37;4.28;;;2.10;;
21018;SDS011;10667;51.056;3.732;2023-07-29T07:27:03;2.75;;;2.00;;
21018;SDS011;10667;51.056;3.732;2023-07-29T07:29:29;2.67;;;1.60;;
21018;SDS011;10667;51.056;3.732;2023-07-29T07:31:55;4.18;;;1.83;;
21018;SDS011;10667;51.056;3.732;2023-07-29T07:34:21;4.00;;;2.10;;
21018;SDS011;10667;51.056;3.732;2023-07-29T07:36:48;1.88;;;1.67;;
21018;SDS011;10667;51.056;3.732;2023-07-29T07:39:14;2.22;;;1.83;;
21018;SDS011;10667;51.056;3.732;2023-07-29T07:41:40;1.95;;;1.30;;
21018;SDS011;10667;51.056;3.732;2023-07-29T07:44:06;2.42;;;1.70;;
21018;SDS011;10667;51.056;3.732;2023-07-29T07:46:32;2.42;;;1.63;;
21018;SDS011;10667;51.056;3.732;2023-07-29T07:48:58;3.15;;;1.65;;
21018;SDS011;10667;51.056;3.732;2023-07-29T07:51:23;2.22;;;1.80;;
21018;SDS011;10667;51.056;3.732;2023-07-29T07:53:49;3.20;;;1.65;;
21018;SDS011;10667;51.056;3.732;2023-07-29T07:56:14;4.22;;;1.73;;
21018;SDS011;10667;51.056;3.732;2023-07-29T07:58:40;3.10;;;1.67;;
21018;SDS011;10667;51.056;3.732;2023-07-29T08:01:06;2.08;;;1.50;;
21018;SDS011;10667;51.056;3.732;2023-07-29T08:03:33;2.83;;;1.73;;
21018;SDS011;10667;51.056;3.732;2023-07-29T08:05:59;4.45;;;1.85;;
21018;SDS011;10667;51.056;3.732;2023-07-29T08:08:25;2.00;;;1.58;;
21018;SDS011;10667;51.056;3.732;2023-07-29T08:10:52;1.80;;;1.52;;
21018;SDS011;10667;51.056;3.732;2023-07-29T08:13:19;3.15;;;1.83;;
21018;SDS011;10667;51.056;3.732;2023-07-29T08:15:46;2.67;;;1.70;;
21018;SDS011;10667;51.056;3.732;2023-07-29T08:18:12;2.35;;;1.73;;
21018;SDS011;10667;51.056;3.732;2023-07-29T08:20:38;4.57;;;2.20;;
21018;SDS011;10667;51.056;3.732;2023-07-29T08:23:03;5.00;;;2.30;;
21018;SDS011;10667;51.056;3.732;2023-07-29T08:25:29;5.53;;;2.25;;
21018;SDS011;10667;51.056;3.732;2023-07-29T08:27:55;4.85;;;2.00;;
21018;SDS011;10667;51.056;3.732;2023-07-29T08:30:20;2.33;;;1.92;;
21018;SDS011;10667;51.056;3.732;2023-07-29T08:32:46;4.28;;;1.80;;
21018;SDS011;10667;51.056;3.732;2023-07-29T08:35:12;3.40;;;2.10;;
21018;SDS011;10667;51.056;3.732;2023-07-29T08:37:37;3.72;;;1.67;;
21018;SDS011;10667;51.056;3.732;2023-07-29T08:40:04;2.85;;;1.80;;
21018;SDS011;10667;51.056;3.732;2023-07-29T08:42:31;5.40;;;2.38;;
21018;SDS011;10667;51.056;3.732;2023-07-29T08:44:59;5.50;;;2.17;;
21018;SDS011;10667;51.056;3.732;2023-07-29T08:47:31;2.72;;;1.85;;
21018;SDS011;10667;51.056;3.732;2023-07-29T08:49:56;3.78;;;1.65;;
21018;SDS011;10667;51.056;3.732;2023-07-29T08:52:24;2.97;;;1.75;;
21018;SDS011;10667;51.056;3.732;2023-07-29T08:54:51;3.35;;;1.83;;
21018;SDS011;10667;51.056;3.732;2023-07-29T08:57:17;3.22;;;2.00;;
21018;SDS011;10667;51.056;3.732;2023-07-29T08:59:45;3.20;;;1.95;;
21018;SDS011;10667;51.056;3.732;2023-07-29T09:02:11;3.20;;;1.67;;
21018;SDS011;10667;51.056;3.732;2023-07-29T09:04:37;3.53;;;2.08;;
21018;SDS011;10667;51.056;3.732;2023-07-29T09:07:02;2.90;;;1.98;;
21018;SDS011;10667;51.056;3.732;2023-07-29T09:09:30;2.97;;;1.90;;
21018;SDS011;10667;51.056;3.732;2023-07-29T09:11:56;2.47;;;1.63;;
21018;SDS011;10667;51.056;3.732;2023-07-29T09:14:23;2.70;;;1.90;;
21018;SDS011;10667;51.056;3.732;2023-07-29T09:16:49;2.40;;;2.10;;
21018;SDS011;10667;51.056;3.732;2023-07-29T09:19:15;3.15;;;2.00;;
21018;SDS011;10667;51.056;3.732;2023-07-29T09:21:40;3.38;;;2.03;;
21018;SDS011;10667;51.056;3.732;2023-07-29T09:24:07;2.83;;;1.90;;
21018;SDS011;10667;51.056;3.732;2023-07-29T09:26:33;3.63;;;2.28;;
21018;SDS011;10667;51.056;3.732;2023-07-29T09:28:59;2.38;;;1.95;;
21018;SDS011;10667;51.056;3.732;2023-07-29T09:31:26;2.90;;;1.77;;
21018;SDS011;10667;51.056;3.732;2023-07-29T09:33:59;2.30;;;1.85;;
21018;SDS011;10667;51.056;3.732;2023-07-29T09:36:26;4.00;;;2.20;;
21018;SDS011;10667;51.056;3.732;2023-07-29T09:38:53;2.45;;;1.63;;
21018;SDS011;10667;51.056;3.732;2023-07-29T09:41:21;2.75;;;1.77;;
21018;SDS011;10667;51.056;3.732;2023-07-29T09:43:48;2.00;;;1.80;;
21018;SDS011;10667;51.056;3.732;2023-07-29T09:46:21;3.67;;;1.90;;
21018;SDS011;10667;51.056;3.732;2023-07-29T09:48:49;3.88;;;2.22;;
21018;SDS011;10667;51.056;3.732;2023-07-29T09:51:17;6.65;;;2.38;;
21018;SDS011;10667;51.056;3.732;2023-07-29T09:53:43;3.95;;;2.22;;
21018;SDS011;10667;51.056;3.732;2023-07-29T09:56:10;5.63;;;2.65;;
21018;SDS011;10667;51.056;3.732;2023-07-29T09:58:37;4.40;;;2.65;;
21018;SDS011;10667;51.056;3.732;2023-07-29T10:01:06;3.50;;;2.55;;
21018;SDS011;10667;51.056;3.732;2023-07-29T10:03:33;4.97;;;2.67;;
21018;SDS011;10667;51.056;3.732;2023-07-29T10:06:01;3.17;;;2.65;;
21018;SDS011;10667;51.056;3.732;2023-07-29T10:08:29;4.35;;;2.83;;
21018;SDS011;10667;51.056;3.732;2023-07-29T10:10:58;5.45;;;3.50;;
21018;SDS011;10667;51.056;3.732;2023-07-29T10:13:24;8.02;;;3.30;;
21018;SDS011;10667;51.056;3.732;2023-07-29T10:15:51;8.07;;;3.42;;
21018;SDS011;10667;51.056;3.732;2023-07-29T10:18:18;3.75;;;3.20;;
21018;SDS011;10667;51.056;3.732;2023-07-29T10:20:44;5.22;;;3.92;;
21018;SDS011;10667;51.056;3.732;2023-07-29T10:23:11;4.38;;;3.63;;
21018;SDS011;10667;51.056;3.732;2023-07-29T10:25:38;4.43;;;3.28;;
21018;SDS011;10667;51.056;3.732;2023-07-29T10:28:08;5.00;;;3.47;;
21018;SDS011;10667;51.056;3.732;2023-07-29T10:30:36;6.32;;;3.60;;
21018;SDS011;10667;51.056;3.732;2023-07-29T10:33:03;3.85;;;3.45;;
21018;SDS011;10667;51.056;3.732;2023-07-29T10:35:33;7.50;;;4.18;;
21018;SDS011;10667;51.056;3.732;2023-07-29T10:38:00;11.10;;;4.28;;
21018;SDS011;10667;51.056;3.732;2023-07-29T10:40:28;6.75;;;4.60;;
21018;SDS011;10667;51.056;3.732;2023-07-29T10:43:10;6.95;;;4.43;;
21018;SDS011;10667;51.056;3.732;2023-07-29T10:45:40;5.75;;;3.85;;
21018;SDS011;10667;51.056;3.732;2023-07-29T10:48:10;8.82;;;4.22;;
21018;SDS011;10667;51.056;3.732;2023-07-29T10:50:38;7.40;;;3.90;;
21018;SDS011;10667;51.056;3.732;2023-07-29T10:53:04;8.82;;;3.17;;
21018;SDS011;10667;51.056;3.732;2023-07-29T10:58:08;8.50;;;3.53;;
21018;SDS011;10667;51.056;3.732;2023-07-29T11:00:39;5.43;;;3.20;;
21018;SDS011;10667;51.056;3.732;2023-07-29T11:03:07;4.22;;;2.67;;
21018;SDS011;10667;51.056;3.732;2023-07-29T11:08:29;2.03;;;1.83;;
21018;SDS011;10667;51.056;3.732;2023-07-29T11:11:03;2.30;;;1.73;;
21018;SDS011;10667;51.056;3.732;2023-07-29T11:13:31;1.70;;;1.58;;
21018;SDS011;10667;51.056;3.732;2023-07-29T11:15:58;2.05;;;1.45;;
21018;SDS011;10667;51.056;3.732;2023-07-29T11:18:27;2.35;;;1.50;;
21018;SDS011;10667;51.056;3.732;2023-07-29T11:20:56;2.67;;;1.75;;
21018;SDS011;10667;51.056;3.732;2023-07-29T11:23:27;2.78;;;1.75;;
21018;SDS011;10667;51.056;3.732;2023-07-29T11:25:57;2.28;;;1.65;;
21018;SDS011;10667;51.056;3.732;2023-07-29T11:28:23;3.78;;;1.98;;
21018;SDS011;10667;51.056;3.732;2023-07-29T11:30:50;2.95;;;1.80;;
21018;SDS011;10667;51.056;3.732;2023-07-29T11:33:20;3.60;;;2.10;;
21018;SDS011;10667;51.056;3.732;2023-07-29T11:35:50;2.88;;;1.90;;
21018;SDS011;10667;51.056;3.732;2023-07-29T11:38:16;3.65;;;2.35;;
21018;SDS011;10667;51.056;3.732;2023-07-29T11:40:52;3.13;;;2.33;;
21018;SDS011;10667;51.056;3.732;2023-07-29T11:43:19;4.25;;;2.80;;
21018;SDS011;10667;51.056;3.732;2023-07-29T11:45:45;3.13;;;2.60;;
21018;SDS011;10667;51.056;3.732;2023-07-29T11:48:11;3.05;;;2.40;;
21018;SDS011;10667;51.056;3.732;2023-07-29T11:50:36;2.70;;;2.20;;
21018;SDS011;10667;51.056;3.732;2023-07-29T11:53:02;2.47;;;2.17;;
21018;SDS011;10667;51.056;3.732;2023-07-29T11:55:28;2.90;;;2.20;;
21018;SDS011;10667;51.056;3.732;2023-07-29T11:57:54;8.18;;;2.50;;
21018;SDS011;10667;51.056;3.732;2023-07-29T12:00:20;2.72;;;1.90;;
21018;SDS011;10667;51.056;3.732;2023-07-29T12:02:46;3.28;;;2.47;;
21018;SDS011;10667;51.056;3.732;2023-07-29T12:05:14;3.28;;;2.30;;
21018;SDS011;10667;51.056;3.732;2023-07-29T12:07:41;2.92;;;2.10;;
21018;SDS011;10667;51.056;3.732;2023-07-29T12:10:08;4.03;;;1.98;;
21018;SDS011;10667;51.056;3.732;2023-07-29T12:12:44;2.15;;;1.70;;
21018;SDS011;10667;51.056;3.732;2023-07-29T12:15:22;2.25;;;1.60;;
21018;SDS011;10667;51.056;3.732;2023-07-29T12:17:58;3.60;;;1.77;;
21018;SDS011;10667;51.056;3.732;2023-07-29T12:20:24;2.95;;;1.60;;
21018;SDS011;10667;51.056;3.732;2023-07-29T12:22:52;1.90;;;1.50;;
21018;SDS011;10667;51.056;3.732;2023-07-29T12:25:22;1.95;;;1.30;;
21018;SDS011;10667;51.056;3.732;2023-07-29T12:27:48;2.22;;;1.50;;
21018;SDS011;10667;51.056;3.732;2023-07-29T12:30:14;3.30;;;1.50;;
21018;SDS011;10667;51.056;3.732;2023-07-29T12:32:44;1.73;;;1.25;;
21018;SDS011;10667;51.056;3.732;2023-07-29T12:35:11;2.00;;;1.35;;
21018;SDS011;10667;51.056;3.732;2023-07-29T12:37:36;2.30;;;1.30;;
21018;SDS011;10667;51.056;3.732;2023-07-29T12:40:04;1.73;;;1.35;;
21018;SDS011;10667;51.056;3.732;2023-07-29T12:42:30;3.13;;;1.30;;
21018;SDS011;10667;51.056;3.732;2023-07-29T12:44:55;2.15;;;1.30;;
21018;SDS011;10667;51.056;3.732;2023-07-29T12:47:21;3.65;;;1.50;;
21018;SDS011;10667;51.056;3.732;2023-07-29T12:49:47;2.55;;;1.40;;
21018;SDS011;10667;51.056;3.732;2023-07-29T12:52:12;1.80;;;1.10;;
21018;SDS011;10667;51.056;3.732;2023-07-29T12:54:38;2.15;;;1.20;;
21018;SDS011;10667;51.056;3.732;2023-07-29T12:57:05;2.55;;;1.50;;
21018;SDS011;10667;51.056;3.732;2023-07-29T12:59:31;3.67;;;1.85;;
21018;SDS011;10667;51.056;3.732;2023-07-29T13:01:57;1.65;;;1.50;;
21018;SDS011;10667;51.056;3.732;2023-07-29T13:04:22;2.45;;;1.40;;
21018;SDS011;10667;51.056;3.732;2023-07-29T13:06:48;2.38;;;1.83;;
21018;SDS011;10667;51.056;3.732;2023-07-29T13:09:13;2.97;;;1.50;;
21018;SDS011;10667;51.056;3.732;2023-07-29T13:11:39;3.30;;;1.60;;
21018;SDS011;10667;51.056;3.732;2023-07-29T13:14:05;2.42;;;1.70;;
21018;SDS011;10667;51.056;3.732;2023-07-29T13:16:30;2.25;;;1.63;;
21018;SDS011;10667;51.056;3.732;2023-07-29T13:18:56;5.07;;;1.50;;
21018;SDS011;10667;51.056;3.732;2023-07-29T13:21:22;1.63;;;1.38;;
21018;SDS011;10667;51.056;3.732;2023-07-29T13:23:48;3.60;;;1.65;;
21018;SDS011;10667;51.056;3.732;2023-07-29T13:26:14;3.17;;;1.27;;
21018;SDS011;10667;51.056;3.732;2023-07-29T13:28:39;3.78;;;1.48;;
21018;SDS011;10667;51.056;3.732;2023-07-29T13:31:05;3.03;;;1.35;;
21018;SDS011;10667;51.056;3.732;2023-07-29T13:33:31;6.55;;;2.00;;
21018;SDS011;10667;51.056;3.732;2023-07-29T13:35:59;4.97;;;1.83;;
21018;SDS011;10667;51.056;3.732;2023-07-29T13:38:25;4.80;;;2.00;;
21018;SDS011;10667;51.056;3.732;2023-07-29T13:40:50;5.25;;;2.30;;
21018;SDS011;10667;51.056;3.732;2023-07-29T13:43:16;3.08;;;2.20;;
21018;SDS011;10667;51.056;3.732;2023-07-29T13:45:42;3.28;;;2.30;;
21018;SDS011;10667;51.056;3.732;2023-07-29T13:48:08;3.15;;;2.13;;
21018;SDS011;10667;51.056;3.732;2023-07-29T13:50:34;4.22;;;2.35;;
21018;SDS011;10667;51.056;3.732;2023-07-29T13:52:59;3.15;;;2.20;;
21018;SDS011;10667;51.056;3.732;2023-07-29T13:55:25;3.30;;;2.25;;
21018;SDS011;10667;51.056;3.732;2023-07-29T13:57:51;4.25;;;2.30;;
21018;SDS011;10667;51.056;3.732;2023-07-29T14:00:17;9.50;;;3.33;;
21018;SDS011;10667;51.056;3.732;2023-07-29T14:02:43;3.42;;;2.90;;
21018;SDS011;10667;51.056;3.732;2023-07-29T14:05:09;8.18;;;4.10;;
21018;SDS011;10667;51.056;3.732;2023-07-29T14:07:36;5.43;;;3.75;;
21018;SDS011;10667;51.056;3.732;2023-07-29T14:10:02;5.22;;;3.58;;
21018;SDS011;10667;51.056;3.732;2023-07-29T14:12:28;6.60;;;2.28;;
21018;SDS011;10667;51.056;3.732;2023-07-29T14:14:53;2.53;;;1.60;;
21018;SDS011;10667;51.056;3.732;2023-07-29T14:17:19;4.20;;;1.48;;
21018;SDS011;10667;51.056;3.732;2023-07-29T14:19:44;2.67;;;1.25;;
21018;SDS011;10667;51.056;3.732;2023-07-29T14:22:10;8.40;;;1.50;;
21018;SDS011;10667;51.056;3.732;2023-07-29T14:24:36;1.48;;;1.10;;
21018;SDS011;10667;51.056;3.732;2023-07-29T14:27:02;0.90;;;0.90;;
21018;SDS011;10667;51.056;3.732;2023-07-29T14:29:28;2.65;;;1.20;;
21018;SDS011;10667;51.056;3.732;2023-07-29T14:31:53;1.23;;;1.10;;
21018;SDS011;10667;51.056;3.732;2023-07-29T14:34:19;1.10;;;0.93;;
21018;SDS011;10667;51.056;3.732;2023-07-29T14:36:45;2.75;;;1.20;;
21018;SDS011;10667;51.056;3.732;2023-07-29T14:39:10;1.88;;;0.95;;
21018;SDS011;10667;51.056;3.732;2023-07-29T14:41:36;1.50;;;1.17;;
21018;SDS011;10667;51.056;3.732;2023-07-29T14:44:02;1.65;;;0.93;;
21018;SDS011;10667;51.056;3.732;2023-07-29T14:46:27;3.80;;;1.65;;
21018;SDS011;10667;51.056;3.732;2023-07-29T14:48:53;1.50;;;0.93;;
21018;SDS011;10667;51.056;3.732;2023-07-29T14:51:19;2.33;;;0.90;;
21018;SDS011;10667;51.056;3.732;2023-07-29T14:53:44;2.50;;;1.20;;
21018;SDS011;10667;51.056;3.732;2023-07-29T14:56:10;0.80;;;0.80;;